Terminal Aerodrome Forecast
Issued by NWS Wakefield, VA

Home | Current Version | Previous Version | Text Only | Print | Product List | Glossary On
Versions: 1 2 3 4 5 6 7 8 9 10 11 12 13 14 15 16 17 18
000
FTUS41 KAKQ 302300
TAFRIC
TAF
KRIC 302339Z 0100/0124 09004KT P6SM SCT030
     FM010400 VRB02KT 2SM BR SCT005
     FM010800 03004KT 5SM BR BKN015
     FM011400 04005KT P6SM SCT020 BKN050=

USA.gov is the U.S. government's official web portal to all federal, state and local government web resources and services.